sensor_id;sensor_type;location;lat;lon;timestamp;temperature;humidity
24250;DHT22;12379;49.820;8.648;2022-12-19T00:01:23;-2.30;99.90
24250;DHT22;12379;49.820;8.648;2022-12-19T00:03:57;-2.30;99.90
24250;DHT22;12379;49.820;8.648;2022-12-19T00:06:23;-2.30;99.90
24250;DHT22;12379;49.820;8.648;2022-12-19T00:08:50;-2.30;99.90
24250;DHT22;12379;49.820;8.648;2022-12-19T00:11:17;-2.30;99.90
24250;DHT22;12379;49.820;8.648;2022-12-19T00:13:43;-2.30;99.90
24250;DHT22;12379;49.820;8.648;2022-12-19T00:16:35;-2.30;99.90
24250;DHT22;12379;49.820;8.648;2022-12-19T00:19:01;-2.30;99.90
24250;DHT22;12379;49.820;8.648;2022-12-19T00:21:28;-2.30;99.90
24250;DHT22;12379;49.820;8.648;2022-12-19T00:23:54;-2.30;99.90
24250;DHT22;12379;49.820;8.648;2022-12-19T00:28:50;-2.20;99.90
24250;DHT22;12379;49.820;8.648;2022-12-19T00:31:17;-2.10;99.90
24250;DHT22;12379;49.820;8.648;2022-12-19T00:33:43;-2.10;99.90
24250;DHT22;12379;49.820;8.648;2022-12-19T00:36:14;-2.10;99.90
24250;DHT22;12379;49.820;8.648;2022-12-19T00:38:40;-2.10;99.90
24250;DHT22;12379;49.820;8.648;2022-12-19T00:41:13;-2.00;99.90
24250;DHT22;12379;49.820;8.648;2022-12-19T00:43:39;-2.00;99.90
24250;DHT22;12379;49.820;8.648;2022-12-19T00:46:07;-2.10;99.90
24250;DHT22;12379;49.820;8.648;2022-12-19T00:48:34;-2.10;99.90
24250;DHT22;12379;49.820;8.648;2022-12-19T00:51:25;-2.10;99.90
24250;DHT22;12379;49.820;8.648;2022-12-19T00:53:51;-2.20;99.90
24250;DHT22;12379;49.820;8.648;2022-12-19T00:56:19;-2.10;99.90
24250;DHT22;12379;49.820;8.648;2022-12-19T00:58:45;-2.10;99.90
24250;DHT22;12379;49.820;8.648;2022-12-19T01:01:19;-2.10;99.90
24250;DHT22;12379;49.820;8.648;2022-12-19T01:03:45;-2.20;99.90
24250;DHT22;12379;49.820;8.648;2022-12-19T01:06:11;-2.20;99.90
24250;DHT22;12379;49.820;8.648;2022-12-19T01:08:37;-2.20;99.90
24250;DHT22;12379;49.820;8.648;2022-12-19T01:11:03;-2.10;99.90
24250;DHT22;12379;49.820;8.648;2022-12-19T01:13:30;-2.00;99.90
24250;DHT22;12379;49.820;8.648;2022-12-19T01:16:06;-2.00;99.90
24250;DHT22;12379;49.820;8.648;2022-12-19T01:18:33;-2.00;99.90
24250;DHT22;12379;49.820;8.648;2022-12-19T01:21:00;-2.00;99.90
24250;DHT22;12379;49.820;8.648;2022-12-19T01:23:26;-2.00;99.90
24250;DHT22;12379;49.820;8.648;2022-12-19T01:25:54;-2.00;99.90
24250;DHT22;12379;49.820;8.648;2022-12-19T01:28:20;-2.00;99.90
24250;DHT22;12379;49.820;8.648;2022-12-19T01:30:46;-2.00;99.90
24250;DHT22;12379;49.820;8.648;2022-12-19T01:33:13;-2.00;99.90
24250;DHT22;12379;49.820;8.648;2022-12-19T01:35:40;-2.00;99.90
24250;DHT22;12379;49.820;8.648;2022-12-19T01:38:06;-1.90;99.90
24250;DHT22;12379;49.820;8.648;2022-12-19T01:40:32;-1.80;99.90
24250;DHT22;12379;49.820;8.648;2022-12-19T01:42:59;-1.80;99.90
24250;DHT22;12379;49.820;8.648;2022-12-19T01:45:28;-1.70;99.90
24250;DHT22;12379;49.820;8.648;2022-12-19T01:48:12;-1.60;99.90
24250;DHT22;12379;49.820;8.648;2022-12-19T01:50:58;-1.60;99.90
24250;DHT22;12379;49.820;8.648;2022-12-19T01:53:27;-1.70;99.90
24250;DHT22;12379;49.820;8.648;2022-12-19T01:55:54;-1.80;99.90
24250;DHT22;12379;49.820;8.648;2022-12-19T01:58:20;-1.80;99.90
24250;DHT22;12379;49.820;8.648;2022-12-19T02:00:46;-1.80;99.90
24250;DHT22;12379;49.820;8.648;2022-12-19T02:03:23;-1.80;99.90
24250;DHT22;12379;49.820;8.648;2022-12-19T02:05:51;-1.80;99.90
24250;DHT22;12379;49.820;8.648;2022-12-19T02:08:17;-1.80;99.90
24250;DHT22;12379;49.820;8.648;2022-12-19T02:10:43;-1.80;99.90
24250;DHT22;12379;49.820;8.648;2022-12-19T02:13:09;-1.70;99.90
24250;DHT22;12379;49.820;8.648;2022-12-19T02:15:45;-1.60;99.90
24250;DHT22;12379;49.820;8.648;2022-12-19T02:23:43;-1.50;99.90
24250;DHT22;12379;49.820;8.648;2022-12-19T02:35:01;-1.60;99.90
24250;DHT22;12379;49.820;8.648;2022-12-19T02:37:33;-1.60;99.90
24250;DHT22;12379;49.820;8.648;2022-12-19T02:40:31;-1.60;99.90
24250;DHT22;12379;49.820;8.648;2022-12-19T02:42:59;-1.50;99.90
24250;DHT22;12379;49.820;8.648;2022-12-19T02:45:30;-1.60;99.90
24250;DHT22;12379;49.820;8.648;2022-12-19T02:47:59;-1.50;99.90
24250;DHT22;12379;49.820;8.648;2022-12-19T02:50:33;-1.50;99.90
24250;DHT22;12379;49.820;8.648;2022-12-19T02:52:59;-1.50;99.90
24250;DHT22;12379;49.820;8.648;2022-12-19T02:55:25;-1.50;99.90
24250;DHT22;12379;49.820;8.648;2022-12-19T02:58:13;-1.60;99.90
24250;DHT22;12379;49.820;8.648;2022-12-19T03:00:53;-1.60;99.90
24250;DHT22;12379;49.820;8.648;2022-12-19T03:06:44;-1.60;99.90
24250;DHT22;12379;49.820;8.648;2022-12-19T03:09:25;-1.60;99.90
24250;DHT22;12379;49.820;8.648;2022-12-19T03:12:01;-1.60;99.90
24250;DHT22;12379;49.820;8.648;2022-12-19T03:14:28;-1.60;99.90
24250;DHT22;12379;49.820;8.648;2022-12-19T03:16:55;-1.50;99.90
24250;DHT22;12379;49.820;8.648;2022-12-19T03:19:21;-1.50;99.90
24250;DHT22;12379;49.820;8.648;2022-12-19T03:21:48;-1.40;99.90
24250;DHT22;12379;49.820;8.648;2022-12-19T03:24:15;-1.30;99.90
24250;DHT22;12379;49.820;8.648;2022-12-19T03:26:56;-1.20;99.90
24250;DHT22;12379;49.820;8.648;2022-12-19T03:29:41;-1.30;99.90
24250;DHT22;12379;49.820;8.648;2022-12-19T03:32:12;-1.20;99.90
24250;DHT22;12379;49.820;8.648;2022-12-19T03:34:51;-1.10;99.90
24250;DHT22;12379;49.820;8.648;2022-12-19T03:37:20;-1.10;99.90
24250;DHT22;12379;49.820;8.648;2022-12-19T03:39:54;-1.10;99.90
24250;DHT22;12379;49.820;8.648;2022-12-19T03:42:24;-1.20;99.90
24250;DHT22;12379;49.820;8.648;2022-12-19T03:45:10;-1.20;99.90
24250;DHT22;12379;49.820;8.648;2022-12-19T03:47:47;-1.20;99.90
24250;DHT22;12379;49.820;8.648;2022-12-19T03:50:13;-1.20;99.90
24250;DHT22;12379;49.820;8.648;2022-12-19T03:52:54;-1.30;99.90
24250;DHT22;12379;49.820;8.648;2022-12-19T03:55:44;-1.20;99.90
24250;DHT22;12379;49.820;8.648;2022-12-19T03:58:16;-1.20;99.90
24250;DHT22;12379;49.820;8.648;2022-12-19T04:00:44;-1.20;99.90
24250;DHT22;12379;49.820;8.648;2022-12-19T04:03:12;-1.20;99.90
24250;DHT22;12379;49.820;8.648;2022-12-19T04:05:39;-1.20;99.90
24250;DHT22;12379;49.820;8.648;2022-12-19T04:08:07;-1.20;99.90
24250;DHT22;12379;49.820;8.648;2022-12-19T04:10:43;-1.30;99.90
24250;DHT22;12379;49.820;8.648;2022-12-19T04:13:22;-1.30;99.90
24250;DHT22;12379;49.820;8.648;2022-12-19T04:16:07;-1.30;99.90
24250;DHT22;12379;49.820;8.648;2022-12-19T04:18:36;-1.30;99.90
24250;DHT22;12379;49.820;8.648;2022-12-19T04:21:07;-1.20;99.90
24250;DHT22;12379;49.820;8.648;2022-12-19T04:23:40;-1.10;99.90
24250;DHT22;12379;49.820;8.648;2022-12-19T04:26:07;-1.30;99.90
24250;DHT22;12379;49.820;8.648;2022-12-19T04:28:39;-1.30;99.90
24250;DHT22;12379;49.820;8.648;2022-12-19T04:31:06;-1.30;99.90
24250;DHT22;12379;49.820;8.648;2022-12-19T04:33:32;-1.30;99.90
24250;DHT22;12379;49.820;8.648;2022-12-19T04:35:58;-1.30;99.90
24250;DHT22;12379;49.820;8.648;2022-12-19T04:38:25;-1.30;99.90
24250;DHT22;12379;49.820;8.648;2022-12-19T04:40:51;-1.40;99.90
24250;DHT22;12379;49.820;8.648;2022-12-19T04:43:17;-1.40;99.90
24250;DHT22;12379;49.820;8.648;2022-12-19T04:45:42;-1.30;99.90
24250;DHT22;12379;49.820;8.648;2022-12-19T04:48:08;-1.20;99.90
24250;DHT22;12379;49.820;8.648;2022-12-19T04:50:34;-1.10;99.90
24250;DHT22;12379;49.820;8.648;2022-12-19T04:53:00;-1.00;99.90
24250;DHT22;12379;49.820;8.648;2022-12-19T04:55:26;-1.00;99.90
24250;DHT22;12379;49.820;8.648;2022-12-19T04:57:51;-1.00;99.90
24250;DHT22;12379;49.820;8.648;2022-12-19T05:00:17;-1.10;99.90
24250;DHT22;12379;49.820;8.648;2022-12-19T05:02:43;-1.10;99.90
24250;DHT22;12379;49.820;8.648;2022-12-19T05:05:10;-1.10;99.90
24250;DHT22;12379;49.820;8.648;2022-12-19T05:07:35;-1.10;99.90
24250;DHT22;12379;49.820;8.648;2022-12-19T05:10:01;-1.10;99.90
24250;DHT22;12379;49.820;8.648;2022-12-19T05:12:27;-1.00;99.90
24250;DHT22;12379;49.820;8.648;2022-12-19T05:14:53;-1.00;99.90
24250;DHT22;12379;49.820;8.648;2022-12-19T05:17:19;-1.10;99.90
24250;DHT22;12379;49.820;8.648;2022-12-19T05:19:44;-1.10;99.90
24250;DHT22;12379;49.820;8.648;2022-12-19T05:22:11;-1.10;99.90
24250;DHT22;12379;49.820;8.648;2022-12-19T05:24:36;-1.00;99.90
24250;DHT22;12379;49.820;8.648;2022-12-19T05:27:02;-1.00;99.90
24250;DHT22;12379;49.820;8.648;2022-12-19T05:29:27;-1.00;99.90
24250;DHT22;12379;49.820;8.648;2022-12-19T05:31:53;-1.00;99.90
24250;DHT22;12379;49.820;8.648;2022-12-19T05:34:18;-1.00;99.90
24250;DHT22;12379;49.820;8.648;2022-12-19T05:36:44;-0.90;99.90
24250;DHT22;12379;49.820;8.648;2022-12-19T05:39:10;-0.90;99.90
24250;DHT22;12379;49.820;8.648;2022-12-19T05:41:36;-0.90;99.90
24250;DHT22;12379;49.820;8.648;2022-12-19T05:44:02;-0.90;99.90
24250;DHT22;12379;49.820;8.648;2022-12-19T05:46:27;-0.80;99.90
24250;DHT22;12379;49.820;8.648;2022-12-19T05:48:54;-0.80;99.90
24250;DHT22;12379;49.820;8.648;2022-12-19T05:51:20;-0.80;99.90
24250;DHT22;12379;49.820;8.648;2022-12-19T05:53:46;-0.80;99.90
24250;DHT22;12379;49.820;8.648;2022-12-19T05:56:17;-0.70;99.90
24250;DHT22;12379;49.820;8.648;2022-12-19T05:58:43;-0.70;99.90
24250;DHT22;12379;49.820;8.648;2022-12-19T06:03:40;-0.70;99.90
24250;DHT22;12379;49.820;8.648;2022-12-19T06:06:09;-0.70;99.90
24250;DHT22;12379;49.820;8.648;2022-12-19T06:08:36;-0.60;99.90
24250;DHT22;12379;49.820;8.648;2022-12-19T06:11:03;-0.60;99.90
24250;DHT22;12379;49.820;8.648;2022-12-19T06:13:30;-0.50;99.90
24250;DHT22;12379;49.820;8.648;2022-12-19T06:16:04;-0.50;99.90
24250;DHT22;12379;49.820;8.648;2022-12-19T06:18:31;-0.50;99.90
24250;DHT22;12379;49.820;8.648;2022-12-19T06:21:11;-0.50;99.90
24250;DHT22;12379;49.820;8.648;2022-12-19T06:23:37;-0.50;99.90
24250;DHT22;12379;49.820;8.648;2022-12-19T06:26:05;-0.40;99.90
24250;DHT22;12379;49.820;8.648;2022-12-19T06:28:31;-0.30;99.90
24250;DHT22;12379;49.820;8.648;2022-12-19T06:30:58;-0.40;99.90
24250;DHT22;12379;49.820;8.648;2022-12-19T06:33:24;-0.60;99.90
24250;DHT22;12379;49.820;8.648;2022-12-19T06:35:58;-0.60;99.90
24250;DHT22;12379;49.820;8.648;2022-12-19T06:38:24;-0.60;99.90
24250;DHT22;12379;49.820;8.648;2022-12-19T06:40:49;-0.50;99.90
24250;DHT22;12379;49.820;8.648;2022-12-19T06:43:34;-0.50;99.90
24250;DHT22;12379;49.820;8.648;2022-12-19T06:45:59;-0.40;99.90
24250;DHT22;12379;49.820;8.648;2022-12-19T06:48:26;-0.30;99.90
24250;DHT22;12379;49.820;8.648;2022-12-19T06:50:51;-0.30;99.90
24250;DHT22;12379;49.820;8.648;2022-12-19T06:53:17;-0.20;99.90
24250;DHT22;12379;49.820;8.648;2022-12-19T06:55:42;-0.30;99.90
24250;DHT22;12379;49.820;8.648;2022-12-19T06:58:08;-0.30;99.90
24250;DHT22;12379;49.820;8.648;2022-12-19T07:00:34;-0.30;99.90
24250;DHT22;12379;49.820;8.648;2022-12-19T07:03:00;-0.30;99.90
24250;DHT22;12379;49.820;8.648;2022-12-19T07:05:26;-0.20;99.90
24250;DHT22;12379;49.820;8.648;2022-12-19T07:07:52;-0.20;99.90
24250;DHT22;12379;49.820;8.648;2022-12-19T07:10:18;-0.30;99.90
24250;DHT22;12379;49.820;8.648;2022-12-19T07:12:43;-0.30;99.90
24250;DHT22;12379;49.820;8.648;2022-12-19T07:15:09;-0.20;99.90
24250;DHT22;12379;49.820;8.648;2022-12-19T07:17:35;-0.20;99.90
24250;DHT22;12379;49.820;8.648;2022-12-19T07:20:00;-0.10;99.90
24250;DHT22;12379;49.820;8.648;2022-12-19T07:22:29;-0.10;99.90
24250;DHT22;12379;49.820;8.648;2022-12-19T07:24:56;-0.10;99.90
24250;DHT22;12379;49.820;8.648;2022-12-19T07:27:23;-0.10;99.90
24250;DHT22;12379;49.820;8.648;2022-12-19T07:29:48;-0.10;99.90
24250;DHT22;12379;49.820;8.648;2022-12-19T07:32:14;-0.10;99.90
24250;DHT22;12379;49.820;8.648;2022-12-19T07:34:39;0.00;99.90
24250;DHT22;12379;49.820;8.648;2022-12-19T07:37:05;0.00;99.90
24250;DHT22;12379;49.820;8.648;2022-12-19T07:39:31;0.10;99.90
24250;DHT22;12379;49.820;8.648;2022-12-19T07:41:57;0.20;99.90
24250;DHT22;12379;49.820;8.648;2022-12-19T07:44:23;0.20;99.90
24250;DHT22;12379;49.820;8.648;2022-12-19T07:46:48;0.20;99.90
24250;DHT22;12379;49.820;8.648;2022-12-19T07:49:14;0.10;99.90
24250;DHT22;12379;49.820;8.648;2022-12-19T07:51:39;0.20;99.90
24250;DHT22;12379;49.820;8.648;2022-12-19T07:54:05;0.30;99.90
24250;DHT22;12379;49.820;8.648;2022-12-19T07:56:30;0.30;99.90
24250;DHT22;12379;49.820;8.648;2022-12-19T07:58:56;0.30;99.90
24250;DHT22;12379;49.820;8.648;2022-12-19T08:01:22;0.30;99.90
24250;DHT22;12379;49.820;8.648;2022-12-19T08:03:47;0.20;99.90
24250;DHT22;12379;49.820;8.648;2022-12-19T08:06:13;0.20;99.90
24250;DHT22;12379;49.820;8.648;2022-12-19T08:08:38;0.20;99.90
24250;DHT22;12379;49.820;8.648;2022-12-19T08:11:09;0.20;99.90
24250;DHT22;12379;49.820;8.648;2022-12-19T08:13:35;0.30;99.90
24250;DHT22;12379;49.820;8.648;2022-12-19T08:16:01;0.30;99.90
24250;DHT22;12379;49.820;8.648;2022-12-19T08:18:27;0.20;99.90
24250;DHT22;12379;49.820;8.648;2022-12-19T08:20:53;0.20;99.90
24250;DHT22;12379;49.820;8.648;2022-12-19T08:23:18;0.10;99.90
24250;DHT22;12379;49.820;8.648;2022-12-19T08:25:44;0.10;99.90
24250;DHT22;12379;49.820;8.648;2022-12-19T08:28:09;0.10;99.90
24250;DHT22;12379;49.820;8.648;2022-12-19T08:30:40;0.10;99.90
24250;DHT22;12379;49.820;8.648;2022-12-19T08:33:06;0.10;99.90
24250;DHT22;12379;49.820;8.648;2022-12-19T08:35:32;0.10;99.90
24250;DHT22;12379;49.820;8.648;2022-12-19T08:37:59;0.10;99.90
24250;DHT22;12379;49.820;8.648;2022-12-19T08:40:25;0.30;99.90
24250;DHT22;12379;49.820;8.648;2022-12-19T08:42:50;0.40;99.90
24250;DHT22;12379;49.820;8.648;2022-12-19T08:45:16;0.40;99.90
24250;DHT22;12379;49.820;8.648;2022-12-19T08:47:43;0.40;99.90
24250;DHT22;12379;49.820;8.648;2022-12-19T08:50:09;0.40;99.90
24250;DHT22;12379;49.820;8.648;2022-12-19T08:52:35;0.40;99.90
24250;DHT22;12379;49.820;8.648;2022-12-19T08:55:00;0.40;99.90
24250;DHT22;12379;49.820;8.648;2022-12-19T08:57:26;0.30;99.90
24250;DHT22;12379;49.820;8.648;2022-12-19T08:59:52;0.30;99.90
24250;DHT22;12379;49.820;8.648;2022-12-19T09:02:17;0.30;99.90
24250;DHT22;12379;49.820;8.648;2022-12-19T09:04:43;0.30;99.90
24250;DHT22;12379;49.820;8.648;2022-12-19T09:07:08;0.30;99.90
24250;DHT22;12379;49.820;8.648;2022-12-19T09:09:34;0.20;99.90
24250;DHT22;12379;49.820;8.648;2022-12-19T09:11:59;0.20;99.90
24250;DHT22;12379;49.820;8.648;2022-12-19T09:14:25;0.30;99.90
24250;DHT22;12379;49.820;8.648;2022-12-19T09:16:50;0.40;99.90
24250;DHT22;12379;49.820;8.648;2022-12-19T09:19:16;0.40;99.90
24250;DHT22;12379;49.820;8.648;2022-12-19T09:21:42;0.40;99.90
24250;DHT22;12379;49.820;8.648;2022-12-19T09:24:08;0.40;99.90
24250;DHT22;12379;49.820;8.648;2022-12-19T09:26:35;0.50;99.90
24250;DHT22;12379;49.820;8.648;2022-12-19T09:29:02;0.50;99.90
24250;DHT22;12379;49.820;8.648;2022-12-19T09:31:28;0.60;99.90
24250;DHT22;12379;49.820;8.648;2022-12-19T09:33:54;0.60;99.90
24250;DHT22;12379;49.820;8.648;2022-12-19T09:36:22;0.70;99.90
24250;DHT22;12379;49.820;8.648;2022-12-19T09:38:48;0.80;99.90
24250;DHT22;12379;49.820;8.648;2022-12-19T09:41:38;0.90;99.90
24250;DHT22;12379;49.820;8.648;2022-12-19T09:47:30;0.90;99.90
24250;DHT22;12379;49.820;8.648;2022-12-19T09:50:00;0.90;99.90
24250;DHT22;12379;49.820;8.648;2022-12-19T09:52:36;1.00;99.90
24250;DHT22;12379;49.820;8.648;2022-12-19T09:55:10;1.10;99.90
24250;DHT22;12379;49.820;8.648;2022-12-19T10:00:19;1.30;99.90
24250;DHT22;12379;49.820;8.648;2022-12-19T10:05:24;1.30;99.90
24250;DHT22;12379;49.820;8.648;2022-12-19T10:07:51;1.30;99.90
24250;DHT22;12379;49.820;8.648;2022-12-19T10:13:30;1.30;99.90
24250;DHT22;12379;49.820;8.648;2022-12-19T10:16:04;1.40;99.90
24250;DHT22;12379;49.820;8.648;2022-12-19T10:21:17;1.50;99.90
24250;DHT22;12379;49.820;8.648;2022-12-19T10:26:45;1.80;99.90
24250;DHT22;12379;49.820;8.648;2022-12-19T10:32:01;1.90;99.90
24250;DHT22;12379;49.820;8.648;2022-12-19T10:34:37;1.80;99.90
24250;DHT22;12379;49.820;8.648;2022-12-19T10:42:18;1.70;99.90
24250;DHT22;12379;49.820;8.648;2022-12-19T10:44:49;1.60;99.90
24250;DHT22;12379;49.820;8.648;2022-12-19T10:47:17;1.50;99.90
24250;DHT22;12379;49.820;8.648;2022-12-19T10:49:43;1.70;99.90
24250;DHT22;12379;49.820;8.648;2022-12-19T10:52:10;1.60;99.90
24250;DHT22;12379;49.820;8.648;2022-12-19T10:57:25;1.50;99.90
24250;DHT22;12379;49.820;8.648;2022-12-19T10:59:58;1.50;99.90
24250;DHT22;12379;49.820;8.648;2022-12-19T11:02:48;1.60;99.90
24250;DHT22;12379;49.820;8.648;2022-12-19T11:05:28;1.50;99.90
24250;DHT22;12379;49.820;8.648;2022-12-19T11:08:15;1.50;99.90
24250;DHT22;12379;49.820;8.648;2022-12-19T11:13:44;1.60;99.90
24250;DHT22;12379;49.820;8.648;2022-12-19T11:16:11;1.60;99.90
24250;DHT22;12379;49.820;8.648;2022-12-19T11:18:43;1.70;99.90
24250;DHT22;12379;49.820;8.648;2022-12-19T11:23:47;1.80;99.90
24250;DHT22;12379;49.820;8.648;2022-12-19T11:26:27;1.80;99.90
24250;DHT22;12379;49.820;8.648;2022-12-19T11:28:56;1.90;99.90
24250;DHT22;12379;49.820;8.648;2022-12-19T11:31:27;1.90;99.90
24250;DHT22;12379;49.820;8.648;2022-12-19T11:33:55;2.00;99.90
24250;DHT22;12379;49.820;8.648;2022-12-19T11:36:38;2.00;99.90
24250;DHT22;12379;49.820;8.648;2022-12-19T11:39:20;2.00;99.90
24250;DHT22;12379;49.820;8.648;2022-12-19T11:41:59;2.00;99.90
24250;DHT22;12379;49.820;8.648;2022-12-19T11:44:35;1.90;99.90
24250;DHT22;12379;49.820;8.648;2022-12-19T11:47:34;1.90;99.90
24250;DHT22;12379;49.820;8.648;2022-12-19T11:53:22;1.90;99.90
24250;DHT22;12379;49.820;8.648;2022-12-19T11:55:54;1.90;99.90
24250;DHT22;12379;49.820;8.648;2022-12-19T11:58:23;1.90;99.90
24250;DHT22;12379;49.820;8.648;2022-12-19T12:06:15;2.10;99.90
24250;DHT22;12379;49.820;8.648;2022-12-19T12:11:23;2.10;99.90
24250;DHT22;12379;49.820;8.648;2022-12-19T12:14:21;2.10;99.90
24250;DHT22;12379;49.820;8.648;2022-12-19T12:31:07;2.20;99.90
24250;DHT22;12379;49.820;8.648;2022-12-19T12:33:56;2.20;99.90
24250;DHT22;12379;49.820;8.648;2022-12-19T12:36:52;2.20;99.90
24250;DHT22;12379;49.820;8.648;2022-12-19T12:39:51;2.20;99.90
24250;DHT22;12379;49.820;8.648;2022-12-19T12:44:46;2.40;99.90
24250;DHT22;12379;49.820;8.648;2022-12-19T12:47:28;2.30;99.90
24250;DHT22;12379;49.820;8.648;2022-12-19T12:50:15;2.60;99.90
24250;DHT22;12379;49.820;8.648;2022-12-19T12:52:46;2.60;99.90
24250;DHT22;12379;49.820;8.648;2022-12-19T12:55:31;2.50;99.90
24250;DHT22;12379;49.820;8.648;2022-12-19T12:57:59;2.60;99.90
24250;DHT22;12379;49.820;8.648;2022-12-19T13:00:28;2.60;99.90
24250;DHT22;12379;49.820;8.648;2022-12-19T13:03:12;2.60;99.90
24250;DHT22;12379;49.820;8.648;2022-12-19T13:10:59;2.60;99.90
24250;DHT22;12379;49.820;8.648;2022-12-19T13:19:15;2.60;99.90
24250;DHT22;12379;49.820;8.648;2022-12-19T13:27:47;2.60;99.90
24250;DHT22;12379;49.820;8.648;2022-12-19T13:30:14;2.70;99.90
24250;DHT22;12379;49.820;8.648;2022-12-19T13:43:16;2.60;99.90
24250;DHT22;12379;49.820;8.648;2022-12-19T13:46:06;2.60;99.90
24250;DHT22;12379;49.820;8.648;2022-12-19T13:48:49;2.60;99.90
24250;DHT22;12379;49.820;8.648;2022-12-19T13:51:15;2.60;99.90
24250;DHT22;12379;49.820;8.648;2022-12-19T13:53:41;2.60;99.90
24250;DHT22;12379;49.820;8.648;2022-12-19T13:58:42;2.40;99.90
24250;DHT22;12379;49.820;8.648;2022-12-19T14:01:27;2.40;99.90
24250;DHT22;12379;49.820;8.648;2022-12-19T14:03:55;2.40;99.90
24250;DHT22;12379;49.820;8.648;2022-12-19T14:06:24;2.40;99.90
24250;DHT22;12379;49.820;8.648;2022-12-19T14:08:52;2.40;99.90
24250;DHT22;12379;49.820;8.648;2022-12-19T14:11:19;2.40;99.90
24250;DHT22;12379;49.820;8.648;2022-12-19T14:13:57;2.40;99.90
24250;DHT22;12379;49.820;8.648;2022-12-19T14:16:43;2.30;99.90
24250;DHT22;12379;49.820;8.648;2022-12-19T14:19:23;2.20;99.90
24250;DHT22;12379;49.820;8.648;2022-12-19T14:21:49;2.30;99.90
24250;DHT22;12379;49.820;8.648;2022-12-19T14:24:20;2.30;99.90
24250;DHT22;12379;49.820;8.648;2022-12-19T14:26:55;2.30;99.90
24250;DHT22;12379;49.820;8.648;2022-12-19T14:29:34;2.50;99.90
24250;DHT22;12379;49.820;8.648;2022-12-19T14:32:01;2.60;99.90
24250;DHT22;12379;49.820;8.648;2022-12-19T14:34:29;2.60;99.90
24250;DHT22;12379;49.820;8.648;2022-12-19T14:36:56;2.50;99.90
24250;DHT22;12379;49.820;8.648;2022-12-19T14:39:30;2.40;99.90
24250;DHT22;12379;49.820;8.648;2022-12-19T14:42:05;2.30;99.90
24250;DHT22;12379;49.820;8.648;2022-12-19T14:44:52;2.20;99.90
24250;DHT22;12379;49.820;8.648;2022-12-19T14:47:31;2.10;99.90
24250;DHT22;12379;49.820;8.648;2022-12-19T14:49:58;2.10;99.90
24250;DHT22;12379;49.820;8.648;2022-12-19T14:57:48;2.00;99.90
24250;DHT22;12379;49.820;8.648;2022-12-19T15:00:27;1.90;99.90
24250;DHT22;12379;49.820;8.648;2022-12-19T15:02:53;1.90;99.90
24250;DHT22;12379;49.820;8.648;2022-12-19T15:05:19;1.80;99.90
24250;DHT22;12379;49.820;8.648;2022-12-19T15:07:52;1.80;99.90
24250;DHT22;12379;49.820;8.648;2022-12-19T15:10:25;1.80;99.90
24250;DHT22;12379;49.820;8.648;2022-12-19T15:21:01;1.60;99.90
24250;DHT22;12379;49.820;8.648;2022-12-19T15:23:28;1.80;99.90
24250;DHT22;12379;49.820;8.648;2022-12-19T15:25:55;1.70;99.90
24250;DHT22;12379;49.820;8.648;2022-12-19T15:28:25;1.60;99.90
24250;DHT22;12379;49.820;8.648;2022-12-19T15:30:58;1.50;99.90
24250;DHT22;12379;49.820;8.648;2022-12-19T15:33:26;1.50;99.90
24250;DHT22;12379;49.820;8.648;2022-12-19T15:35:52;1.50;99.90
24250;DHT22;12379;49.820;8.648;2022-12-19T15:38:17;1.40;99.90
24250;DHT22;12379;49.820;8.648;2022-12-19T15:40:43;1.40;99.90
24250;DHT22;12379;49.820;8.648;2022-12-19T15:43:15;1.40;99.90
24250;DHT22;12379;49.820;8.648;2022-12-19T15:45:42;1.40;99.90
24250;DHT22;12379;49.820;8.648;2022-12-19T15:48:13;1.40;99.90
24250;DHT22;12379;49.820;8.648;2022-12-19T15:50:39;1.40;99.90
24250;DHT22;12379;49.820;8.648;2022-12-19T15:53:19;1.30;99.90
24250;DHT22;12379;49.820;8.648;2022-12-19T15:55:45;1.30;99.90
24250;DHT22;12379;49.820;8.648;2022-12-19T15:58:12;1.20;99.90
24250;DHT22;12379;49.820;8.648;2022-12-19T16:00:38;1.20;99.90
24250;DHT22;12379;49.820;8.648;2022-12-19T16:03:11;1.20;99.90
24250;DHT22;12379;49.820;8.648;2022-12-19T16:05:37;1.20;99.90
24250;DHT22;12379;49.820;8.648;2022-12-19T16:08:13;1.10;99.90
24250;DHT22;12379;49.820;8.648;2022-12-19T16:10:40;1.10;99.90
24250;DHT22;12379;49.820;8.648;2022-12-19T16:13:15;1.00;99.90
24250;DHT22;12379;49.820;8.648;2022-12-19T16:15:42;1.00;99.90
24250;DHT22;12379;49.820;8.648;2022-12-19T16:18:11;1.00;99.90
24250;DHT22;12379;49.820;8.648;2022-12-19T16:20:38;1.00;99.90
24250;DHT22;12379;49.820;8.648;2022-12-19T16:23:05;1.00;99.90
24250;DHT22;12379;49.820;8.648;2022-12-19T16:28:06;1.00;99.90
24250;DHT22;12379;49.820;8.648;2022-12-19T16:30:33;1.00;99.90
24250;DHT22;12379;49.820;8.648;2022-12-19T16:32:59;1.00;99.90
24250;DHT22;12379;49.820;8.648;2022-12-19T16:35:27;1.00;99.90
24250;DHT22;12379;49.820;8.648;2022-12-19T16:37:56;0.90;99.90
24250;DHT22;12379;49.820;8.648;2022-12-19T16:40:24;0.90;99.90
24250;DHT22;12379;49.820;8.648;2022-12-19T16:42:59;0.90;99.90
24250;DHT22;12379;49.820;8.648;2022-12-19T16:45:27;1.00;99.90
24250;DHT22;12379;49.820;8.648;2022-12-19T16:47:53;0.90;99.90
24250;DHT22;12379;49.820;8.648;2022-12-19T16:50:22;0.90;99.90
24250;DHT22;12379;49.820;8.648;2022-12-19T16:52:50;0.90;99.90
24250;DHT22;12379;49.820;8.648;2022-12-19T16:55:16;0.90;99.90
24250;DHT22;12379;49.820;8.648;2022-12-19T16:57:43;0.80;99.90
24250;DHT22;12379;49.820;8.648;2022-12-19T17:00:13;0.80;99.90
24250;DHT22;12379;49.820;8.648;2022-12-19T17:02:49;0.80;99.90
24250;DHT22;12379;49.820;8.648;2022-12-19T17:05:22;0.90;99.90
24250;DHT22;12379;49.820;8.648;2022-12-19T17:07:48;0.90;99.90
24250;DHT22;12379;49.820;8.648;2022-12-19T17:10:15;0.80;99.90
24250;DHT22;12379;49.820;8.648;2022-12-19T17:12:41;0.80;99.90
24250;DHT22;12379;49.820;8.648;2022-12-19T17:15:37;0.80;99.90
24250;DHT22;12379;49.820;8.648;2022-12-19T17:18:11;0.80;99.90
24250;DHT22;12379;49.820;8.648;2022-12-19T17:20:40;0.80;99.90
24250;DHT22;12379;49.820;8.648;2022-12-19T17:23:23;0.90;99.90
24250;DHT22;12379;49.820;8.648;2022-12-19T17:25:53;0.90;99.90
24250;DHT22;12379;49.820;8.648;2022-12-19T17:28:19;0.90;99.90
24250;DHT22;12379;49.820;8.648;2022-12-19T17:30:50;0.90;99.90
24250;DHT22;12379;49.820;8.648;2022-12-19T17:33:17;0.90;99.90
24250;DHT22;12379;49.820;8.648;2022-12-19T17:35:44;0.90;99.90
24250;DHT22;12379;49.820;8.648;2022-12-19T17:38:15;1.00;99.90
24250;DHT22;12379;49.820;8.648;2022-12-19T17:40:41;1.00;99.90
24250;DHT22;12379;49.820;8.648;2022-12-19T17:43:08;1.00;99.90
24250;DHT22;12379;49.820;8.648;2022-12-19T17:45:33;1.00;99.90
24250;DHT22;12379;49.820;8.648;2022-12-19T17:48:02;1.10;99.90
24250;DHT22;12379;49.820;8.648;2022-12-19T17:50:39;1.10;99.90
24250;DHT22;12379;49.820;8.648;2022-12-19T17:53:07;1.00;99.90
24250;DHT22;12379;49.820;8.648;2022-12-19T17:55:36;0.90;99.90
24250;DHT22;12379;49.820;8.648;2022-12-19T17:58:01;0.90;99.90
24250;DHT22;12379;49.820;8.648;2022-12-19T18:00:28;0.90;99.90
24250;DHT22;12379;49.820;8.648;2022-12-19T18:02:57;0.90;99.90
24250;DHT22;12379;49.820;8.648;2022-12-19T18:05:27;0.90;99.90
24250;DHT22;12379;49.820;8.648;2022-12-19T18:07:53;0.90;99.90